createdAt,value
2023-10-25T00:00:13.700Z,1009.58
2023-10-25T00:00:27.708Z,1009.58
2023-10-25T00:00:41.908Z,1009.58
2023-10-25T00:00:56.105Z,1009.58
2023-10-25T00:01:24.177Z,1009.57
2023-10-25T00:01:38.384Z,1009.57
2023-10-25T00:01:52.550Z,1009.57
2023-10-25T00:02:06.603Z,1009.57
2023-10-25T00:02:34.618Z,1009.58
2023-10-25T00:02:48.744Z,1009.58
2023-10-25T00:03:02.947Z,1009.58
2023-10-25T00:03:17.124Z,1009.59
2023-10-25T00:03:45.288Z,1009.59
2023-10-25T00:03:59.391Z,1009.60
2023-10-25T00:04:13.590Z,1009.60
2023-10-25T00:04:27.769Z,1009.61
2023-10-25T00:04:55.954Z,1009.61
2023-10-25T00:05:09.940Z,1009.62
2023-10-25T00:05:23.978Z,1009.62
2023-10-25T00:05:37.981Z,1009.63
2023-10-25T00:05:52.038Z,1009.63
2023-10-25T00:06:06.025Z,1009.63
2023-10-25T00:06:20.053Z,1009.64
2023-10-25T00:06:34.063Z,1009.64
2023-10-25T00:06:48.102Z,1009.65
2023-10-25T00:07:16.175Z,1009.65
2023-10-25T00:07:30.187Z,1009.65
2023-10-25T00:07:44.177Z,1009.65
2023-10-25T00:07:58.174Z,1009.66
2023-10-25T00:08:26.172Z,1009.66
2023-10-25T00:08:40.183Z,1009.67
2023-10-25T00:08:54.216Z,1009.67
2023-10-25T00:09:08.218Z,1009.67
2023-10-25T00:09:36.235Z,1009.69
2023-10-25T00:09:50.327Z,1009.68
2023-10-25T00:10:04.465Z,1009.69
2023-10-25T00:10:18.561Z,1009.69
2023-10-25T00:10:46.556Z,1009.69
2023-10-25T00:11:00.557Z,1009.69
2023-10-25T00:11:14.558Z,1009.70
2023-10-25T00:11:28.544Z,1009.70
2023-10-25T00:11:56.507Z,1009.71
2023-10-25T00:12:10.518Z,1009.71
2023-10-25T00:12:24.500Z,1009.71
2023-10-25T00:12:38.519Z,1009.71
2023-10-25T00:13:06.601Z,1009.72
2023-10-25T00:13:20.628Z,1009.72
2023-10-25T00:13:34.633Z,1009.72
2023-10-25T00:13:48.611Z,1009.72
2023-10-25T00:14:16.586Z,1009.72
2023-10-25T00:14:30.630Z,1009.73
2023-10-25T00:14:44.624Z,1009.72
2023-10-25T00:14:58.632Z,1009.72
2023-10-25T00:15:26.591Z,1009.72
2023-10-25T00:15:40.658Z,1009.72
2023-10-25T00:15:54.772Z,1009.72
2023-10-25T00:16:08.842Z,1009.72
2023-10-25T00:16:36.969Z,1009.71
2023-10-25T00:16:51.021Z,1009.71
2023-10-25T00:17:05.059Z,1009.72
2023-10-25T00:17:19.089Z,1009.72
2023-10-25T00:17:47.096Z,1009.71
2023-10-25T00:18:01.216Z,1009.71
2023-10-25T00:18:15.238Z,1009.70
2023-10-25T00:18:29.222Z,1009.70
2023-10-25T00:18:57.231Z,1009.70
2023-10-25T00:19:11.402Z,1009.70
2023-10-25T00:19:25.447Z,1009.70
2023-10-25T00:19:39.493Z,1009.69
2023-10-25T00:20:08.254Z,1009.70
2023-10-25T00:20:22.257Z,1009.70
2023-10-25T00:20:36.280Z,1009.70
2023-10-25T00:20:50.268Z,1009.70
2023-10-25T00:21:18.261Z,1009.71
2023-10-25T00:21:32.333Z,1009.71
2023-10-25T00:21:46.362Z,1009.71
2023-10-25T00:22:00.418Z,1009.71
2023-10-25T00:22:28.424Z,1009.71
2023-10-25T00:22:42.430Z,1009.72
2023-10-25T00:22:56.444Z,1009.72
2023-10-25T00:23:10.477Z,1009.72
2023-10-25T00:23:24.491Z,1009.72
2023-10-25T00:23:38.493Z,1009.73
2023-10-25T00:23:52.501Z,1009.73
2023-10-25T00:24:06.489Z,1009.73
2023-10-25T00:24:20.486Z,1009.73
2023-10-25T00:24:48.523Z,1009.73
2023-10-25T00:25:02.691Z,1009.74
2023-10-25T00:25:16.823Z,1009.74
2023-10-25T00:25:30.871Z,1009.74
2023-10-25T00:25:58.880Z,1009.74
2023-10-25T00:26:12.878Z,1009.75
2023-10-25T00:26:26.913Z,1009.75
2023-10-25T00:26:40.938Z,1009.76
2023-10-25T00:27:08.906Z,1009.76
2023-10-25T00:27:22.921Z,1009.76
2023-10-25T00:27:36.960Z,1009.76
2023-10-25T00:27:50.999Z,1009.76
2023-10-25T00:28:18.981Z,1009.76
2023-10-25T00:28:32.965Z,1009.76
2023-10-25T00:28:46.967Z,1009.75
2023-10-25T00:29:00.957Z,1009.75
2023-10-25T00:29:28.920Z,1009.74
2023-10-25T00:29:43.100Z,1009.73
2023-10-25T00:29:57.168Z,1009.74
2023-10-25T00:30:11.180Z,1009.73
2023-10-25T00:30:39.241Z,1009.73
2023-10-25T00:30:53.334Z,1009.73
2023-10-25T00:31:07.466Z,1009.73
2023-10-25T00:31:21.677Z,1009.73
2023-10-25T00:31:49.798Z,1009.72
2023-10-25T00:32:03.896Z,1009.71
2023-10-25T00:32:17.949Z,1009.71
2023-10-25T00:32:31.971Z,1009.71
2023-10-25T00:32:59.991Z,1009.70
2023-10-25T00:33:14.039Z,1009.70
2023-10-25T00:33:28.057Z,1009.69
2023-10-25T00:33:42.151Z,1009.69
2023-10-25T00:34:10.209Z,1009.68
2023-10-25T00:34:24.253Z,1009.67
2023-10-25T00:34:38.256Z,1009.67
2023-10-25T00:34:52.249Z,1009.66
2023-10-25T00:35:20.242Z,1009.64
2023-10-25T00:35:34.230Z,1009.63
2023-10-25T00:35:48.257Z,1009.62
2023-10-25T00:36:02.253Z,1009.62
2023-10-25T00:36:30.234Z,1009.60
2023-10-25T00:36:44.260Z,1009.59
2023-10-25T00:36:58.306Z,1009.59
2023-10-25T00:37:12.384Z,1009.58
2023-10-25T00:37:40.424Z,1009.57
2023-10-25T00:37:54.419Z,1009.57
2023-10-25T00:38:08.415Z,1009.56
2023-10-25T00:38:22.407Z,1009.56
2023-10-25T00:38:50.401Z,1009.56
2023-10-25T00:39:04.428Z,1009.56
2023-10-25T00:39:18.449Z,1009.56
2023-10-25T00:39:32.442Z,1009.56
2023-10-25T00:40:00.485Z,1009.56
2023-10-25T00:40:14.548Z,1009.56
2023-10-25T00:40:28.596Z,1009.56
2023-10-25T00:40:42.584Z,1009.56
2023-10-25T00:41:10.538Z,1009.56
2023-10-25T00:41:24.544Z,1009.56
2023-10-25T00:41:38.531Z,1009.56
2023-10-25T00:41:52.514Z,1009.56
2023-10-25T00:42:20.489Z,1009.56
2023-10-25T00:42:34.493Z,1009.56
2023-10-25T00:42:48.576Z,1009.57
2023-10-25T00:43:02.724Z,1009.57
2023-10-25T00:43:30.746Z,1009.57
2023-10-25T00:43:44.752Z,1009.57
2023-10-25T00:43:58.742Z,1009.57
2023-10-25T00:44:12.740Z,1009.57
2023-10-25T00:44:40.710Z,1009.58
2023-10-25T00:44:54.698Z,1009.58
2023-10-25T00:45:08.695Z,1009.58
2023-10-25T00:45:22.754Z,1009.58
2023-10-25T00:45:50.754Z,1009.58
2023-10-25T00:46:04.919Z,1009.58
2023-10-25T00:46:19.018Z,1009.58
2023-10-25T00:46:33.074Z,1009.58
2023-10-25T00:47:01.106Z,1009.58
2023-10-25T00:47:15.130Z,1009.58
2023-10-25T00:47:29.135Z,1009.58
2023-10-25T00:47:43.229Z,1009.58
2023-10-25T00:48:11.236Z,1009.58
2023-10-25T00:48:25.230Z,1009.58
2023-10-25T00:48:39.281Z,1009.58
2023-10-25T00:48:53.327Z,1009.59
2023-10-25T00:49:07.401Z,1009.60
2023-10-25T00:49:21.416Z,1009.60
2023-10-25T00:49:35.411Z,1009.60
2023-10-25T00:49:49.398Z,1009.61
2023-10-25T00:50:03.404Z,1009.61
2023-10-25T00:50:31.368Z,1009.62
2023-10-25T00:50:45.360Z,1009.63
2023-10-25T00:50:59.367Z,1009.63
2023-10-25T00:51:13.363Z,1009.63
2023-10-25T00:51:41.373Z,1009.64
2023-10-25T00:51:55.506Z,1009.64
2023-10-25T00:52:09.663Z,1009.65
2023-10-25T00:52:23.809Z,1009.65
2023-10-25T00:52:51.779Z,1009.66
2023-10-25T00:53:05.773Z,1009.66
2023-10-25T00:53:19.772Z,1009.66
2023-10-25T00:53:33.769Z,1009.66
2023-10-25T00:54:01.729Z,1009.66
2023-10-25T00:54:15.740Z,1009.66
2023-10-25T00:54:29.770Z,1009.66
2023-10-25T00:54:43.820Z,1009.67
2023-10-25T00:55:11.887Z,1009.67
2023-10-25T00:55:25.895Z,1009.67
2023-10-25T00:55:39.918Z,1009.67
2023-10-25T00:55:53.923Z,1009.67
2023-10-25T00:56:21.906Z,1009.68
2023-10-25T00:56:35.900Z,1009.68
2023-10-25T00:56:49.914Z,1009.68
2023-10-25T00:57:03.989Z,1009.68
2023-10-25T00:57:31.976Z,1009.69
2023-10-25T00:57:46.008Z,1009.69
2023-10-25T00:58:00.046Z,1009.69
2023-10-25T00:58:14.110Z,1009.69
2023-10-25T00:58:42.110Z,1009.68
2023-10-25T00:58:56.112Z,1009.68
2023-10-25T00:59:10.128Z,1009.68
2023-10-25T00:59:24.125Z,1009.68
2023-10-25T00:59:52.154Z,1009.68
2023-10-25T01:00:06.153Z,1009.68
2023-10-25T01:00:20.167Z,1009.68
2023-10-25T01:00:34.206Z,1009.68
2023-10-25T01:01:02.277Z,1009.67
2023-10-25T01:01:16.371Z,1009.67
2023-10-25T01:01:30.539Z,1009.66
2023-10-25T01:01:44.598Z,1009.66
2023-10-25T01:02:12.651Z,1009.65
2023-10-25T01:02:26.765Z,1009.64
2023-10-25T01:02:40.933Z,1009.63
2023-10-25T01:02:55.100Z,1009.63
2023-10-25T01:03:23.202Z,1009.62
2023-10-25T01:03:37.404Z,1009.61
2023-10-25T01:03:51.582Z,1009.60
2023-10-25T01:04:05.775Z,1009.60
2023-10-25T01:04:33.939Z,1009.58
2023-10-25T01:04:48.025Z,1009.57
2023-10-25T01:05:02.039Z,1009.57
2023-10-25T01:05:16.042Z,1009.56
2023-10-25T01:05:44.021Z,1009.55
2023-10-25T01:05:58.031Z,1009.55
2023-10-25T01:06:12.043Z,1009.54
2023-10-25T01:06:26.045Z,1009.54
2023-10-25T01:06:54.065Z,1009.53
2023-10-25T01:07:08.164Z,1009.53
2023-10-25T01:07:22.312Z,1009.52
2023-10-25T01:07:36.298Z,1009.52
2023-10-25T01:08:04.306Z,1009.51
2023-10-25T01:08:18.324Z,1009.51
2023-10-25T01:08:32.313Z,1009.51
2023-10-25T01:08:46.327Z,1009.50
2023-10-25T01:09:14.295Z,1009.50
2023-10-25T01:09:28.288Z,1009.50
2023-10-25T01:09:42.516Z,1009.49
2023-10-25T01:09:56.767Z,1009.49
2023-10-25T01:10:24.778Z,1009.48
2023-10-25T01:10:38.752Z,1009.47
2023-10-25T01:10:52.807Z,1009.47
2023-10-25T01:11:06.865Z,1009.46
2023-10-25T01:11:34.866Z,1009.44
2023-10-25T01:11:48.866Z,1009.44
2023-10-25T01:12:02.857Z,1009.43
2023-10-25T01:12:16.863Z,1009.42
2023-10-25T01:12:45.002Z,1009.40
2023-10-25T01:12:59.051Z,1009.39
2023-10-25T01:13:13.116Z,1009.38
2023-10-25T01:13:27.110Z,1009.37
2023-10-25T01:13:55.101Z,1009.36
2023-10-25T01:14:09.088Z,1009.35
2023-10-25T01:14:23.073Z,1009.35
2023-10-25T01:14:37.076Z,1009.34
2023-10-25T01:14:51.060Z,1009.33
2023-10-25T01:15:05.127Z,1009.32
2023-10-25T01:15:19.226Z,1009.32
2023-10-25T01:15:33.270Z,1009.32
2023-10-25T01:15:47.407Z,1009.31
2023-10-25T01:16:15.603Z,1009.30
2023-10-25T01:16:29.714Z,1009.30
2023-10-25T01:16:43.838Z,1009.30
2023-10-25T01:16:58.081Z,1009.30
2023-10-25T01:17:26.213Z,1009.29
2023-10-25T01:17:40.306Z,1009.29
2023-10-25T01:17:54.388Z,1009.29
2023-10-25T01:18:08.492Z,1009.29
2023-10-25T01:18:37.322Z,1009.29
2023-10-25T01:18:51.435Z,1009.30
2023-10-25T01:19:05.544Z,1009.30
2023-10-25T01:19:19.630Z,1009.31
2023-10-25T01:19:47.614Z,1009.32
2023-10-25T01:20:01.626Z,1009.33
2023-10-25T01:20:15.816Z,1009.34
2023-10-25T01:20:29.811Z,1009.34
2023-10-25T01:20:57.767Z,1009.35
2023-10-25T01:21:11.758Z,1009.36
2023-10-25T01:21:25.785Z,1009.36
2023-10-25T01:21:39.821Z,1009.37
2023-10-25T01:22:07.831Z,1009.37
2023-10-25T01:22:21.867Z,1009.38
2023-10-25T01:22:35.853Z,1009.38
2023-10-25T01:22:49.923Z,1009.38
2023-10-25T01:23:03.915Z,1009.38
2023-10-25T01:23:17.928Z,1009.39
2023-10-25T01:23:31.960Z,1009.39
2023-10-25T01:23:45.961Z,1009.39
2023-10-25T01:23:59.947Z,1009.39
2023-10-25T01:24:27.919Z,1009.39
2023-10-25T01:24:41.947Z,1009.39
2023-10-25T01:24:55.993Z,1009.39
2023-10-25T01:25:10.173Z,1009.39
2023-10-25T01:25:38.224Z,1009.40
2023-10-25T01:25:52.213Z,1009.39
2023-10-25T01:26:06.303Z,1009.39
2023-10-25T01:26:20.297Z,1009.39
2023-10-25T01:26:48.269Z,1009.40
2023-10-25T01:27:02.258Z,1009.39
2023-10-25T01:27:16.265Z,1009.40
2023-10-25T01:27:30.248Z,1009.40
2023-10-25T01:27:58.209Z,1009.40
2023-10-25T01:28:12.243Z,1009.39
2023-10-25T01:28:26.275Z,1009.39
2023-10-25T01:28:40.293Z,1009.39
2023-10-25T01:29:08.258Z,1009.38
2023-10-25T01:29:22.258Z,1009.38
2023-10-25T01:29:36.261Z,1009.38
2023-10-25T01:29:50.240Z,1009.37
2023-10-25T01:30:18.193Z,1009.36
2023-10-25T01:30:32.202Z,1009.36
2023-10-25T01:30:46.221Z,1009.36
2023-10-25T01:31:00.292Z,1009.36
2023-10-25T01:31:28.354Z,1009.35
2023-10-25T01:31:42.426Z,1009.34
2023-10-25T01:31:56.522Z,1009.34
2023-10-25T01:32:10.617Z,1009.34
2023-10-25T01:32:38.658Z,1009.33
2023-10-25T01:32:52.699Z,1009.33
2023-10-25T01:33:06.875Z,1009.33
2023-10-25T01:33:20.880Z,1009.33
2023-10-25T01:33:48.912Z,1009.33
2023-10-25T01:34:02.989Z,1009.33
2023-10-25T01:34:17.059Z,1009.33
2023-10-25T01:34:31.055Z,1009.33
2023-10-25T01:34:59.035Z,1009.34
2023-10-25T01:35:13.016Z,1009.34
2023-10-25T01:35:27.030Z,1009.34
2023-10-25T01:35:41.098Z,1009.34
2023-10-25T01:35:55.128Z,1009.35
2023-10-25T01:36:09.135Z,1009.35
2023-10-25T01:36:23.142Z,1009.36
2023-10-25T01:36:37.158Z,1009.35
2023-10-25T01:36:51.259Z,1009.36
2023-10-25T01:37:19.248Z,1009.37
2023-10-25T01:37:33.264Z,1009.37
2023-10-25T01:37:47.266Z,1009.37
2023-10-25T01:38:01.269Z,1009.37
2023-10-25T01:38:29.266Z,1009.37
2023-10-25T01:38:43.270Z,1009.37
2023-10-25T01:38:57.261Z,1009.37
2023-10-25T01:39:11.282Z,1009.37
2023-10-25T01:39:39.519Z,1009.37
2023-10-25T01:39:53.719Z,1009.36
2023-10-25T01:40:07.794Z,1009.35
2023-10-25T01:40:21.871Z,1009.36
2023-10-25T01:40:49.914Z,1009.35
2023-10-25T01:41:03.912Z,1009.35
2023-10-25T01:41:17.934Z,1009.35
2023-10-25T01:41:31.951Z,1009.35
2023-10-25T01:41:59.916Z,1009.35
2023-10-25T01:42:13.915Z,1009.35
2023-10-25T01:42:27.930Z,1009.36
2023-10-25T01:42:41.986Z,1009.36
2023-10-25T01:43:10.003Z,1009.37
2023-10-25T01:43:24.050Z,1009.37
2023-10-25T01:43:38.061Z,1009.38
2023-10-25T01:43:52.045Z,1009.38
2023-10-25T01:44:20.043Z,1009.39
2023-10-25T01:44:34.111Z,1009.40
2023-10-25T01:44:48.093Z,1009.40
2023-10-25T01:45:02.096Z,1009.40
2023-10-25T01:45:30.079Z,1009.40
2023-10-25T01:45:44.128Z,1009.39
2023-10-25T01:45:58.310Z,1009.39
2023-10-25T01:46:12.487Z,1009.38
2023-10-25T01:46:40.807Z,1009.38
2023-10-25T01:46:55.023Z,1009.37
2023-10-25T01:47:09.086Z,1009.37
2023-10-25T01:47:23.116Z,1009.36
2023-10-25T01:47:51.214Z,1009.35
2023-10-25T01:48:05.319Z,1009.35
2023-10-25T01:48:19.356Z,1009.34
2023-10-25T01:48:33.439Z,1009.34
2023-10-25T01:48:47.468Z,1009.34
2023-10-25T01:49:01.558Z,1009.33
2023-10-25T01:49:15.629Z,1009.33
2023-10-25T01:49:29.696Z,1009.33
2023-10-25T01:49:43.914Z,1009.32
2023-10-25T01:50:11.988Z,1009.32
2023-10-25T01:50:25.996Z,1009.32
2023-10-25T01:50:40.022Z,1009.32
2023-10-25T01:50:54.050Z,1009.32
2023-10-25T01:51:22.155Z,1009.32
2023-10-25T01:51:36.163Z,1009.32
2023-10-25T01:51:50.185Z,1009.32
2023-10-25T01:52:04.226Z,1009.32
2023-10-25T01:52:32.231Z,1009.32
2023-10-25T01:52:46.239Z,1009.32
2023-10-25T01:53:00.263Z,1009.31
2023-10-25T01:53:14.256Z,1009.31
2023-10-25T01:53:42.223Z,1009.31
2023-10-25T01:53:56.210Z,1009.30
2023-10-25T01:54:10.281Z,1009.30
2023-10-25T01:54:24.276Z,1009.30
2023-10-25T01:54:52.341Z,1009.28
2023-10-25T01:55:06.437Z,1009.28
2023-10-25T01:55:20.549Z,1009.28
2023-10-25T01:55:34.587Z,1009.27
2023-10-25T01:56:02.578Z,1009.26
2023-10-25T01:56:16.573Z,1009.26
2023-10-25T01:56:30.604Z,1009.26
2023-10-25T01:56:44.594Z,1009.26
2023-10-25T01:57:12.564Z,1009.25
2023-10-25T01:57:26.576Z,1009.25
2023-10-25T01:57:40.625Z,1009.24
2023-10-25T01:57:54.672Z,1009.24
2023-10-25T01:58:22.689Z,1009.24
2023-10-25T01:58:36.662Z,1009.24
2023-10-25T01:58:50.666Z,1009.24
2023-10-25T01:59:04.651Z,1009.24
2023-10-25T01:59:32.677Z,1009.24
2023-10-25T01:59:46.680Z,1009.23
2023-10-25T02:00:00.684Z,1009.23
2023-10-25T02:00:14.685Z,1009.23
2023-10-25T02:00:42.750Z,1009.23
2023-10-25T02:00:56.808Z,1009.23
2023-10-25T02:01:10.900Z,1009.23
2023-10-25T02:01:25.016Z,1009.23
2023-10-25T02:01:39.164Z,1009.22
2023-10-25T02:01:53.185Z,1009.22
2023-10-25T02:02:07.249Z,1009.22
2023-10-25T02:02:21.271Z,1009.21
2023-10-25T02:02:35.301Z,1009.21
2023-10-25T02:03:03.443Z,1009.20
2023-10-25T02:03:17.523Z,1009.20
2023-10-25T02:03:31.755Z,1009.20
2023-10-25T02:03:46.019Z,1009.20
2023-10-25T02:04:14.262Z,1009.20
2023-10-25T02:04:28.358Z,1009.19
2023-10-25T02:04:42.431Z,1009.19
2023-10-25T02:04:56.445Z,1009.19
2023-10-25T02:05:24.429Z,1009.19
2023-10-25T02:05:38.429Z,1009.19
2023-10-25T02:05:52.420Z,1009.19
2023-10-25T02:06:06.443Z,1009.18
2023-10-25T02:06:34.448Z,1009.19
2023-10-25T02:06:48.504Z,1009.19
2023-10-25T02:07:02.573Z,1009.19
2023-10-25T02:07:16.616Z,1009.19
2023-10-25T02:07:44.595Z,1009.19
2023-10-25T02:07:58.577Z,1009.19
2023-10-25T02:08:12.588Z,1009.19
2023-10-25T02:08:26.573Z,1009.18
2023-10-25T02:08:54.576Z,1009.18
2023-10-25T02:09:08.584Z,1009.18
2023-10-25T02:09:22.602Z,1009.17
2023-10-25T02:09:36.674Z,1009.17
2023-10-25T02:10:04.699Z,1009.16
2023-10-25T02:10:18.840Z,1009.15
2023-10-25T02:10:32.862Z,1009.14
2023-10-25T02:10:46.866Z,1009.14
2023-10-25T02:11:14.824Z,1009.13
2023-10-25T02:11:28.816Z,1009.12
2023-10-25T02:11:43.345Z,1009.11
2023-10-25T02:11:57.348Z,1009.11
2023-10-25T02:12:25.335Z,1009.10
2023-10-25T02:12:39.357Z,1009.10
2023-10-25T02:12:53.376Z,1009.10
2023-10-25T02:13:07.479Z,1009.10
2023-10-25T02:13:35.446Z,1009.10
2023-10-25T02:13:49.440Z,1009.10
2023-10-25T02:14:03.426Z,1009.10
2023-10-25T02:14:17.436Z,1009.10
2023-10-25T02:14:45.408Z,1009.10
2023-10-25T02:14:59.406Z,1009.10
2023-10-25T02:15:13.446Z,1009.09
2023-10-25T02:15:27.447Z,1009.09
2023-10-25T02:15:55.475Z,1009.08
2023-10-25T02:16:09.574Z,1009.08
2023-10-25T02:16:23.786Z,1009.07
2023-10-25T02:16:37.837Z,1009.07
2023-10-25T02:17:05.887Z,1009.06
2023-10-25T02:17:19.931Z,1009.05
2023-10-25T02:17:33.931Z,1009.04
2023-10-25T02:17:48.018Z,1009.04
2023-10-25T02:18:16.035Z,1009.02
2023-10-25T02:18:30.024Z,1009.02
2023-10-25T02:18:44.085Z,1009.00
2023-10-25T02:18:58.164Z,1008.99
2023-10-25T02:19:26.167Z,1008.98
2023-10-25T02:19:40.247Z,1008.97
2023-10-25T02:19:54.308Z,1008.97
2023-10-25T02:20:08.293Z,1008.96
2023-10-25T02:20:36.270Z,1008.95
2023-10-25T02:20:50.274Z,1008.95
2023-10-25T02:21:04.295Z,1008.94
2023-10-25T02:21:18.324Z,1008.94
2023-10-25T02:21:46.313Z,1008.94
2023-10-25T02:22:00.429Z,1008.93
2023-10-25T02:22:14.585Z,1008.93
2023-10-25T02:22:28.655Z,1008.93
2023-10-25T02:22:56.601Z,1008.92
2023-10-25T02:23:10.613Z,1008.93
2023-10-25T02:23:24.606Z,1008.92
2023-10-25T02:23:38.606Z,1008.92
2023-10-25T02:24:06.567Z,1008.92
2023-10-25T02:24:20.555Z,1008.92
2023-10-25T02:24:34.551Z,1008.92
2023-10-25T02:24:48.592Z,1008.92
2023-10-25T02:25:16.670Z,1008.92
2023-10-25T02:25:30.698Z,1008.92
2023-10-25T02:25:44.692Z,1008.92
2023-10-25T02:25:58.706Z,1008.92
2023-10-25T02:26:26.675Z,1008.92
2023-10-25T02:26:40.660Z,1008.92
2023-10-25T02:26:54.683Z,1008.92
2023-10-25T02:27:08.684Z,1008.93
2023-10-25T02:27:22.701Z,1008.93
2023-10-25T02:27:36.683Z,1008.93
2023-10-25T02:27:50.674Z,1008.94
2023-10-25T02:28:04.884Z,1008.94
2023-10-25T02:28:19.021Z,1008.95
2023-10-25T02:28:47.008Z,1008.95
2023-10-25T02:29:01.044Z,1008.95
2023-10-25T02:29:15.043Z,1008.96
2023-10-25T02:29:29.037Z,1008.96
2023-10-25T02:29:57.033Z,1008.97
2023-10-25T02:30:11.025Z,1008.97
2023-10-25T02:30:25.045Z,1008.97
2023-10-25T02:30:39.061Z,1008.97
2023-10-25T02:31:07.215Z,1008.97
2023-10-25T02:31:21.437Z,1008.97
2023-10-25T02:31:35.585Z,1008.96
2023-10-25T02:31:49.630Z,1008.97
2023-10-25T02:32:17.662Z,1008.96
2023-10-25T02:32:31.680Z,1008.96
2023-10-25T02:32:45.758Z,1008.96
2023-10-25T02:32:59.806Z,1008.96
2023-10-25T02:33:27.782Z,1008.96
2023-10-25T02:33:41.801Z,1008.95
2023-10-25T02:33:55.855Z,1008.95
2023-10-25T02:34:09.935Z,1008.96
2023-10-25T02:34:38.072Z,1008.94
2023-10-25T02:34:52.142Z,1008.94
2023-10-25T02:35:06.191Z,1008.94
2023-10-25T02:35:20.197Z,1008.93
2023-10-25T02:35:48.186Z,1008.93
2023-10-25T02:36:02.181Z,1008.93
2023-10-25T02:36:16.175Z,1008.92
2023-10-25T02:36:30.166Z,1008.92
2023-10-25T02:36:58.153Z,1008.92
2023-10-25T02:37:12.274Z,1008.92
2023-10-25T02:37:26.366Z,1008.91
2023-10-25T02:37:40.377Z,1008.91
2023-10-25T02:38:08.357Z,1008.91
2023-10-25T02:38:22.366Z,1008.91
2023-10-25T02:38:36.362Z,1008.91
2023-10-25T02:38:50.372Z,1008.91
2023-10-25T02:39:18.319Z,1008.91
2023-10-25T02:39:32.335Z,1008.91
2023-10-25T02:39:46.366Z,1008.92
2023-10-25T02:40:00.434Z,1008.92
2023-10-25T02:40:14.498Z,1008.91
2023-10-25T02:40:28.533Z,1008.92
2023-10-25T02:40:42.538Z,1008.91
2023-10-25T02:40:56.561Z,1008.91
2023-10-25T02:41:10.573Z,1008.91
2023-10-25T02:41:38.561Z,1008.91
2023-10-25T02:41:52.572Z,1008.91
2023-10-25T02:42:06.648Z,1008.91
2023-10-25T02:42:20.683Z,1008.91
2023-10-25T02:42:48.730Z,1008.91
2023-10-25T02:43:02.882Z,1008.92
2023-10-25T02:43:16.930Z,1008.92
2023-10-25T02:43:30.983Z,1008.92
2023-10-25T02:43:58.955Z,1008.94
2023-10-25T02:44:12.959Z,1008.94
2023-10-25T02:44:26.986Z,1008.95
2023-10-25T02:44:41.060Z,1008.96
2023-10-25T02:45:09.034Z,1008.98
2023-10-25T02:45:23.036Z,1008.99
2023-10-25T02:45:37.068Z,1009.00
2023-10-25T02:45:51.192Z,1009.01
2023-10-25T02:46:19.463Z,1009.02
2023-10-25T02:46:33.798Z,1009.02
2023-10-25T02:46:47.907Z,1009.03
2023-10-25T02:47:01.926Z,1009.03
2023-10-25T02:47:29.916Z,1009.04
2023-10-25T02:47:43.950Z,1009.04
2023-10-25T02:47:58.006Z,1009.04
2023-10-25T02:48:12.039Z,1009.05
2023-10-25T02:48:40.195Z,1009.05
2023-10-25T02:48:54.408Z,1009.06
2023-10-25T02:49:08.640Z,1009.06
2023-10-25T02:49:22.693Z,1009.07
2023-10-25T02:49:50.650Z,1009.07
2023-10-25T02:50:04.652Z,1009.08
2023-10-25T02:50:18.640Z,1009.08
2023-10-25T02:50:33.302Z,1009.09
2023-10-25T02:51:01.348Z,1009.09
2023-10-25T02:51:15.378Z,1009.10
2023-10-25T02:51:29.384Z,1009.10
2023-10-25T02:51:43.489Z,1009.10
2023-10-25T02:52:11.532Z,1009.11
2023-10-25T02:52:25.588Z,1009.12
2023-10-25T02:52:39.620Z,1009.12
2023-10-25T02:52:53.606Z,1009.13
2023-10-25T02:53:07.600Z,1009.13
2023-10-25T02:53:21.598Z,1009.13
2023-10-25T02:53:35.589Z,1009.13
2023-10-25T02:53:49.607Z,1009.13
2023-10-25T02:54:03.606Z,1009.13
2023-10-25T02:54:31.618Z,1009.13
2023-10-25T02:54:45.654Z,1009.13
2023-10-25T02:54:59.717Z,1009.13
2023-10-25T02:55:13.784Z,1009.12
2023-10-25T02:55:41.810Z,1009.12
2023-10-25T02:55:55.801Z,1009.12
2023-10-25T02:56:09.808Z,1009.12
2023-10-25T02:56:23.803Z,1009.12
2023-10-25T02:56:51.778Z,1009.11
2023-10-25T02:57:05.768Z,1009.11
2023-10-25T02:57:19.800Z,1009.11
2023-10-25T02:57:33.831Z,1009.10
2023-10-25T02:58:01.871Z,1009.09
2023-10-25T02:58:15.954Z,1009.09
2023-10-25T02:58:29.983Z,1009.08
2023-10-25T02:58:43.990Z,1009.08
2023-10-25T02:59:11.958Z,1009.07
2023-10-25T02:59:26.156Z,1009.07
2023-10-25T02:59:40.408Z,1009.06
2023-10-25T02:59:54.595Z,1009.06
2023-10-25T03:00:22.590Z,1009.05
2023-10-25T03:00:36.586Z,1009.05
2023-10-25T03:00:50.677Z,1009.04
2023-10-25T03:01:04.792Z,1009.03
2023-10-25T03:01:32.956Z,1009.03
2023-10-25T03:01:47.071Z,1009.02
2023-10-25T03:02:01.350Z,1009.02
2023-10-25T03:02:15.361Z,1009.01
2023-10-25T03:02:43.423Z,1009.00
2023-10-25T03:02:57.521Z,1009.00
2023-10-25T03:03:11.580Z,1008.99
2023-10-25T03:03:25.643Z,1008.99
2023-10-25T03:03:53.735Z,1008.99
2023-10-25T03:04:07.891Z,1008.99
2023-10-25T03:04:22.004Z,1008.98
2023-10-25T03:04:36.067Z,1008.98
2023-10-25T03:05:04.058Z,1008.97
2023-10-25T03:05:18.098Z,1008.97
2023-10-25T03:05:32.081Z,1008.97
2023-10-25T03:05:46.078Z,1008.97
2023-10-25T03:06:14.109Z,1008.97
2023-10-25T03:06:28.108Z,1008.97
2023-10-25T03:06:42.157Z,1008.96
2023-10-25T03:06:56.224Z,1008.96
2023-10-25T03:07:24.334Z,1008.96
2023-10-25T03:07:38.318Z,1008.96
2023-10-25T03:07:52.341Z,1008.96
2023-10-25T03:08:06.339Z,1008.95
2023-10-25T03:08:34.311Z,1008.95
2023-10-25T03:08:48.312Z,1008.95
2023-10-25T03:09:02.308Z,1008.94
2023-10-25T03:09:16.317Z,1008.94
2023-10-25T03:09:44.609Z,1008.93
2023-10-25T03:09:58.877Z,1008.93
2023-10-25T03:10:12.918Z,1008.94
2023-10-25T03:10:26.921Z,1008.93
2023-10-25T03:10:54.882Z,1008.94
2023-10-25T03:11:08.876Z,1008.94
2023-10-25T03:11:22.879Z,1008.94
2023-10-25T03:11:36.873Z,1008.95
2023-10-25T03:12:04.837Z,1008.96
2023-10-25T03:12:18.869Z,1008.96
2023-10-25T03:12:32.890Z,1008.96
2023-10-25T03:12:46.918Z,1008.97
2023-10-25T03:13:14.939Z,1008.97
2023-10-25T03:13:29.002Z,1008.98
2023-10-25T03:13:43.057Z,1008.98
2023-10-25T03:13:57.100Z,1008.98
2023-10-25T03:14:11.210Z,1008.99
2023-10-25T03:14:25.221Z,1008.99
2023-10-25T03:14:39.206Z,1009.00
2023-10-25T03:14:53.261Z,1009.00
2023-10-25T03:15:07.260Z,1009.00
2023-10-25T03:15:35.236Z,1009.01
2023-10-25T03:15:49.372Z,1009.01
2023-10-25T03:16:03.537Z,1009.02
2023-10-25T03:16:17.720Z,1009.02
2023-10-25T03:16:45.828Z,1009.03
2023-10-25T03:16:59.907Z,1009.03
2023-10-25T03:17:13.918Z,1009.03
2023-10-25T03:17:27.970Z,1009.03
2023-10-25T03:17:56.079Z,1009.04
2023-10-25T03:18:10.079Z,1009.04
2023-10-25T03:18:24.070Z,1009.04
2023-10-25T03:18:38.062Z,1009.04
2023-10-25T03:19:06.143Z,1009.04
2023-10-25T03:19:20.230Z,1009.04
2023-10-25T03:19:34.273Z,1009.04
2023-10-25T03:19:48.263Z,1009.04
2023-10-25T03:20:16.359Z,1009.04
2023-10-25T03:20:30.364Z,1009.04
2023-10-25T03:20:44.348Z,1009.04
2023-10-25T03:20:58.353Z,1009.05
2023-10-25T03:21:26.306Z,1009.05
2023-10-25T03:21:40.305Z,1009.05
2023-10-25T03:21:54.395Z,1009.06
2023-10-25T03:22:08.526Z,1009.06
2023-10-25T03:22:36.563Z,1009.07
2023-10-25T03:22:50.557Z,1009.07
2023-10-25T03:23:04.556Z,1009.07
2023-10-25T03:23:18.570Z,1009.07
2023-10-25T03:23:46.532Z,1009.08
2023-10-25T03:24:00.545Z,1009.07
2023-10-25T03:24:14.542Z,1009.07
2023-10-25T03:24:28.522Z,1009.07
2023-10-25T03:24:56.530Z,1009.07
2023-10-25T03:25:10.619Z,1009.07
2023-10-25T03:25:24.662Z,1009.07
2023-10-25T03:25:38.670Z,1009.07
2023-10-25T03:26:06.679Z,1009.07
2023-10-25T03:26:20.703Z,1009.07
2023-10-25T03:26:34.692Z,1009.07
2023-10-25T03:26:48.695Z,1009.07
2023-10-25T03:27:16.662Z,1009.06
2023-10-25T03:27:30.664Z,1009.06
2023-10-25T03:27:44.772Z,1009.06
2023-10-25T03:27:58.862Z,1009.05
2023-10-25T03:28:26.859Z,1009.05
2023-10-25T03:28:41.598Z,1009.04